sensor_id;sensor_type;location;lat;lon;timestamp;P1;durP1;ratioP1;P2;durP2;ratioP2
49320;SDS011;35817;44.498;0.166;2022-10-16T00:01:14;5.30;;;3.20;;
49320;SDS011;35817;44.498;0.166;2022-10-16T00:03:41;6.93;;;2.58;;
49320;SDS011;35817;44.498;0.166;2022-10-16T00:06:09;5.18;;;3.25;;
49320;SDS011;35817;44.498;0.166;2022-10-16T00:08:35;6.03;;;3.50;;
49320;SDS011;35817;44.498;0.166;2022-10-16T00:11:03;9.60;;;4.10;;
49320;SDS011;35817;44.498;0.166;2022-10-16T00:13:34;12.60;;;3.95;;
49320;SDS011;35817;44.498;0.166;2022-10-16T00:16:01;7.15;;;3.80;;
49320;SDS011;35817;44.498;0.166;2022-10-16T00:18:27;9.55;;;4.13;;
49320;SDS011;35817;44.498;0.166;2022-10-16T00:20:54;7.00;;;3.30;;
49320;SDS011;35817;44.498;0.166;2022-10-16T00:23:20;5.82;;;3.70;;
49320;SDS011;35817;44.498;0.166;2022-10-16T00:25:57;10.63;;;4.55;;
49320;SDS011;35817;44.498;0.166;2022-10-16T00:28:24;5.15;;;4.03;;
49320;SDS011;35817;44.498;0.166;2022-10-16T00:30:51;5.60;;;3.70;;
49320;SDS011;35817;44.498;0.166;2022-10-16T00:33:17;6.43;;;4.07;;
49320;SDS011;35817;44.498;0.166;2022-10-16T00:35:42;7.63;;;3.70;;
49320;SDS011;35817;44.498;0.166;2022-10-16T00:38:08;5.90;;;3.47;;
49320;SDS011;35817;44.498;0.166;2022-10-16T00:40:34;6.32;;;4.30;;
49320;SDS011;35817;44.498;0.166;2022-10-16T00:43:00;10.55;;;3.38;;
49320;SDS011;35817;44.498;0.166;2022-10-16T00:45:26;4.30;;;3.80;;
49320;SDS011;35817;44.498;0.166;2022-10-16T00:47:52;9.93;;;3.90;;
49320;SDS011;35817;44.498;0.166;2022-10-16T00:50:28;4.90;;;3.72;;
49320;SDS011;35817;44.498;0.166;2022-10-16T00:52:57;7.05;;;4.20;;
49320;SDS011;35817;44.498;0.166;2022-10-16T00:55:25;7.10;;;4.00;;
49320;SDS011;35817;44.498;0.166;2022-10-16T00:57:52;5.88;;;4.22;;
49320;SDS011;35817;44.498;0.166;2022-10-16T01:00:22;4.88;;;3.85;;
49320;SDS011;35817;44.498;0.166;2022-10-16T01:02:54;5.70;;;4.35;;
49320;SDS011;35817;44.498;0.166;2022-10-16T01:05:23;4.97;;;3.58;;
49320;SDS011;35817;44.498;0.166;2022-10-16T01:08:01;5.57;;;3.95;;
49320;SDS011;35817;44.498;0.166;2022-10-16T01:13:04;6.30;;;4.00;;
49320;SDS011;35817;44.498;0.166;2022-10-16T01:15:34;5.20;;;3.58;;
49320;SDS011;35817;44.498;0.166;2022-10-16T01:18:42;5.65;;;4.32;;
49320;SDS011;35817;44.498;0.166;2022-10-16T01:29:09;11.32;;;4.03;;
49320;SDS011;35817;44.498;0.166;2022-10-16T01:31:41;4.40;;;3.75;;
49320;SDS011;35817;44.498;0.166;2022-10-16T01:34:15;7.25;;;3.85;;
49320;SDS011;35817;44.498;0.166;2022-10-16T01:36:49;5.93;;;4.45;;
49320;SDS011;35817;44.498;0.166;2022-10-16T01:39:19;7.38;;;4.60;;
49320;SDS011;35817;44.498;0.166;2022-10-16T01:41:49;7.07;;;4.63;;
49320;SDS011;35817;44.498;0.166;2022-10-16T01:44:21;5.75;;;4.28;;
49320;SDS011;35817;44.498;0.166;2022-10-16T01:46:51;10.35;;;4.60;;
49320;SDS011;35817;44.498;0.166;2022-10-16T01:49:18;7.90;;;3.50;;
49320;SDS011;35817;44.498;0.166;2022-10-16T01:51:47;5.75;;;3.85;;
49320;SDS011;35817;44.498;0.166;2022-10-16T01:54:17;4.32;;;3.83;;
49320;SDS011;35817;44.498;0.166;2022-10-16T01:56:45;4.60;;;3.40;;
49320;SDS011;35817;44.498;0.166;2022-10-16T01:59:14;8.95;;;4.13;;
49320;SDS011;35817;44.498;0.166;2022-10-16T02:01:44;5.93;;;4.20;;
49320;SDS011;35817;44.498;0.166;2022-10-16T02:04:20;6.35;;;4.18;;
49320;SDS011;35817;44.498;0.166;2022-10-16T02:06:56;10.32;;;3.95;;
49320;SDS011;35817;44.498;0.166;2022-10-16T02:09:22;7.43;;;4.25;;
49320;SDS011;35817;44.498;0.166;2022-10-16T02:11:48;5.07;;;4.05;;
49320;SDS011;35817;44.498;0.166;2022-10-16T02:14:18;4.55;;;3.63;;
49320;SDS011;35817;44.498;0.166;2022-10-16T02:16:45;6.65;;;4.28;;
49320;SDS011;35817;44.498;0.166;2022-10-16T02:19:15;6.18;;;4.43;;
49320;SDS011;35817;44.498;0.166;2022-10-16T02:21:54;5.18;;;3.35;;
49320;SDS011;35817;44.498;0.166;2022-10-16T02:29:31;5.75;;;4.18;;
49320;SDS011;35817;44.498;0.166;2022-10-16T02:32:00;4.80;;;3.45;;
49320;SDS011;35817;44.498;0.166;2022-10-16T02:34:29;6.22;;;3.72;;
49320;SDS011;35817;44.498;0.166;2022-10-16T02:36:58;5.30;;;3.95;;
49320;SDS011;35817;44.498;0.166;2022-10-16T02:39:26;4.15;;;3.35;;
49320;SDS011;35817;44.498;0.166;2022-10-16T02:41:54;9.90;;;3.85;;
49320;SDS011;35817;44.498;0.166;2022-10-16T02:44:19;7.38;;;2.58;;
49320;SDS011;35817;44.498;0.166;2022-10-16T02:46:45;9.65;;;3.35;;
49320;SDS011;35817;44.498;0.166;2022-10-16T02:49:11;4.30;;;3.60;;
49320;SDS011;35817;44.498;0.166;2022-10-16T02:51:36;7.35;;;3.60;;
49320;SDS011;35817;44.498;0.166;2022-10-16T02:54:02;6.22;;;4.10;;
49320;SDS011;35817;44.498;0.166;2022-10-16T02:56:28;4.80;;;2.65;;
49320;SDS011;35817;44.498;0.166;2022-10-16T02:58:55;4.70;;;3.53;;
49320;SDS011;35817;44.498;0.166;2022-10-16T03:01:20;4.60;;;3.45;;
49320;SDS011;35817;44.498;0.166;2022-10-16T03:03:47;3.33;;;2.15;;
49320;SDS011;35817;44.498;0.166;2022-10-16T03:06:13;5.45;;;2.90;;
49320;SDS011;35817;44.498;0.166;2022-10-16T03:08:38;5.38;;;2.88;;
49320;SDS011;35817;44.498;0.166;2022-10-16T03:11:04;7.38;;;3.40;;
49320;SDS011;35817;44.498;0.166;2022-10-16T03:13:30;4.55;;;3.15;;
49320;SDS011;35817;44.498;0.166;2022-10-16T03:15:55;5.68;;;3.15;;
49320;SDS011;35817;44.498;0.166;2022-10-16T03:18:21;4.90;;;3.72;;
49320;SDS011;35817;44.498;0.166;2022-10-16T03:20:47;3.42;;;2.65;;
49320;SDS011;35817;44.498;0.166;2022-10-16T03:23:13;5.80;;;3.42;;
49320;SDS011;35817;44.498;0.166;2022-10-16T03:25:39;6.07;;;3.47;;
49320;SDS011;35817;44.498;0.166;2022-10-16T03:28:04;4.68;;;3.53;;
49320;SDS011;35817;44.498;0.166;2022-10-16T03:30:30;7.68;;;3.47;;
49320;SDS011;35817;44.498;0.166;2022-10-16T03:32:56;6.43;;;2.90;;
49320;SDS011;35817;44.498;0.166;2022-10-16T03:35:22;8.57;;;3.83;;
49320;SDS011;35817;44.498;0.166;2022-10-16T03:37:48;5.35;;;4.15;;
49320;SDS011;35817;44.498;0.166;2022-10-16T03:40:15;5.60;;;4.97;;
49320;SDS011;35817;44.498;0.166;2022-10-16T03:42:44;5.18;;;4.45;;
49320;SDS011;35817;44.498;0.166;2022-10-16T03:45:10;8.07;;;4.35;;
49320;SDS011;35817;44.498;0.166;2022-10-16T03:47:36;6.65;;;4.03;;
49320;SDS011;35817;44.498;0.166;2022-10-16T03:50:02;8.48;;;4.07;;
49320;SDS011;35817;44.498;0.166;2022-10-16T03:52:29;5.00;;;4.18;;
49320;SDS011;35817;44.498;0.166;2022-10-16T03:54:55;5.20;;;3.67;;
49320;SDS011;35817;44.498;0.166;2022-10-16T03:57:20;7.22;;;4.63;;
49320;SDS011;35817;44.498;0.166;2022-10-16T03:59:46;6.82;;;4.72;;
49320;SDS011;35817;44.498;0.166;2022-10-16T04:02:12;6.20;;;4.65;;
49320;SDS011;35817;44.498;0.166;2022-10-16T04:04:38;6.88;;;4.95;;
49320;SDS011;35817;44.498;0.166;2022-10-16T04:07:03;5.72;;;4.10;;
49320;SDS011;35817;44.498;0.166;2022-10-16T04:09:29;7.15;;;4.43;;
49320;SDS011;35817;44.498;0.166;2022-10-16T04:11:55;5.82;;;4.80;;
49320;SDS011;35817;44.498;0.166;2022-10-16T04:14:21;5.22;;;3.78;;
49320;SDS011;35817;44.498;0.166;2022-10-16T04:16:47;5.85;;;4.20;;
49320;SDS011;35817;44.498;0.166;2022-10-16T04:19:12;6.90;;;4.43;;
49320;SDS011;35817;44.498;0.166;2022-10-16T04:21:38;8.55;;;5.03;;
49320;SDS011;35817;44.498;0.166;2022-10-16T04:24:04;7.28;;;5.75;;
49320;SDS011;35817;44.498;0.166;2022-10-16T04:26:29;8.73;;;5.45;;
49320;SDS011;35817;44.498;0.166;2022-10-16T04:28:55;6.90;;;4.93;;
49320;SDS011;35817;44.498;0.166;2022-10-16T04:31:21;8.10;;;4.68;;
49320;SDS011;35817;44.498;0.166;2022-10-16T04:33:47;6.82;;;4.65;;
49320;SDS011;35817;44.498;0.166;2022-10-16T04:36:13;7.65;;;5.45;;
49320;SDS011;35817;44.498;0.166;2022-10-16T04:38:39;6.85;;;4.88;;
49320;SDS011;35817;44.498;0.166;2022-10-16T04:41:05;5.85;;;4.68;;
49320;SDS011;35817;44.498;0.166;2022-10-16T04:43:32;10.00;;;5.32;;
49320;SDS011;35817;44.498;0.166;2022-10-16T04:45:58;8.13;;;4.28;;
49320;SDS011;35817;44.498;0.166;2022-10-16T04:48:24;7.18;;;4.85;;
49320;SDS011;35817;44.498;0.166;2022-10-16T04:50:49;7.28;;;4.68;;
49320;SDS011;35817;44.498;0.166;2022-10-16T04:53:15;8.98;;;6.15;;
49320;SDS011;35817;44.498;0.166;2022-10-16T04:55:41;6.93;;;4.78;;
49320;SDS011;35817;44.498;0.166;2022-10-16T04:58:07;8.50;;;5.97;;
49320;SDS011;35817;44.498;0.166;2022-10-16T05:00:33;7.78;;;4.85;;
49320;SDS011;35817;44.498;0.166;2022-10-16T05:02:59;9.45;;;5.97;;
49320;SDS011;35817;44.498;0.166;2022-10-16T05:05:26;7.22;;;5.25;;
49320;SDS011;35817;44.498;0.166;2022-10-16T05:07:52;7.93;;;6.63;;
49320;SDS011;35817;44.498;0.166;2022-10-16T05:10:18;6.82;;;4.80;;
49320;SDS011;35817;44.498;0.166;2022-10-16T05:12:44;6.45;;;5.25;;
49320;SDS011;35817;44.498;0.166;2022-10-16T05:15:10;8.18;;;5.85;;
49320;SDS011;35817;44.498;0.166;2022-10-16T05:17:35;14.32;;;6.22;;
49320;SDS011;35817;44.498;0.166;2022-10-16T05:20:01;8.35;;;6.05;;
49320;SDS011;35817;44.498;0.166;2022-10-16T05:22:28;12.65;;;6.55;;
49320;SDS011;35817;44.498;0.166;2022-10-16T05:24:54;8.45;;;5.95;;
49320;SDS011;35817;44.498;0.166;2022-10-16T05:27:20;9.40;;;5.55;;
49320;SDS011;35817;44.498;0.166;2022-10-16T05:29:47;9.80;;;7.18;;
49320;SDS011;35817;44.498;0.166;2022-10-16T05:32:14;13.38;;;5.78;;
49320;SDS011;35817;44.498;0.166;2022-10-16T05:34:41;10.82;;;5.68;;
49320;SDS011;35817;44.498;0.166;2022-10-16T05:37:07;10.55;;;6.18;;
49320;SDS011;35817;44.498;0.166;2022-10-16T05:39:33;11.10;;;7.30;;
49320;SDS011;35817;44.498;0.166;2022-10-16T05:41:58;6.20;;;5.22;;
49320;SDS011;35817;44.498;0.166;2022-10-16T05:44:24;9.35;;;5.93;;
49320;SDS011;35817;44.498;0.166;2022-10-16T05:46:50;5.95;;;4.97;;
49320;SDS011;35817;44.498;0.166;2022-10-16T05:49:15;7.68;;;5.13;;
49320;SDS011;35817;44.498;0.166;2022-10-16T05:51:41;8.23;;;6.00;;
49320;SDS011;35817;44.498;0.166;2022-10-16T05:54:07;6.97;;;6.25;;
49320;SDS011;35817;44.498;0.166;2022-10-16T05:56:33;9.07;;;5.53;;
49320;SDS011;35817;44.498;0.166;2022-10-16T05:58:59;7.95;;;6.82;;
49320;SDS011;35817;44.498;0.166;2022-10-16T06:01:24;7.22;;;5.78;;
49320;SDS011;35817;44.498;0.166;2022-10-16T06:03:51;10.35;;;6.45;;
49320;SDS011;35817;44.498;0.166;2022-10-16T06:06:18;7.45;;;5.47;;
49320;SDS011;35817;44.498;0.166;2022-10-16T06:08:45;12.32;;;6.50;;
49320;SDS011;35817;44.498;0.166;2022-10-16T06:11:13;8.85;;;6.55;;
49320;SDS011;35817;44.498;0.166;2022-10-16T06:13:41;8.30;;;6.00;;
49320;SDS011;35817;44.498;0.166;2022-10-16T06:16:07;7.25;;;5.88;;
49320;SDS011;35817;44.498;0.166;2022-10-16T06:18:35;9.60;;;7.28;;
49320;SDS011;35817;44.498;0.166;2022-10-16T06:21:07;7.63;;;6.10;;
49320;SDS011;35817;44.498;0.166;2022-10-16T06:23:34;8.93;;;6.70;;
49320;SDS011;35817;44.498;0.166;2022-10-16T06:26:07;9.73;;;7.07;;
49320;SDS011;35817;44.498;0.166;2022-10-16T06:28:33;11.73;;;6.60;;
49320;SDS011;35817;44.498;0.166;2022-10-16T06:31:00;10.20;;;6.43;;
49320;SDS011;35817;44.498;0.166;2022-10-16T06:33:26;10.15;;;7.13;;
49320;SDS011;35817;44.498;0.166;2022-10-16T06:35:51;8.88;;;7.60;;
49320;SDS011;35817;44.498;0.166;2022-10-16T06:38:17;9.90;;;7.25;;
49320;SDS011;35817;44.498;0.166;2022-10-16T06:40:43;11.60;;;7.72;;
49320;SDS011;35817;44.498;0.166;2022-10-16T06:43:08;8.48;;;7.18;;
49320;SDS011;35817;44.498;0.166;2022-10-16T06:45:34;9.23;;;7.85;;
49320;SDS011;35817;44.498;0.166;2022-10-16T06:48:00;10.68;;;7.93;;
49320;SDS011;35817;44.498;0.166;2022-10-16T06:50:25;13.70;;;7.50;;
49320;SDS011;35817;44.498;0.166;2022-10-16T06:52:51;9.27;;;7.28;;
49320;SDS011;35817;44.498;0.166;2022-10-16T06:55:17;10.70;;;8.90;;
49320;SDS011;35817;44.498;0.166;2022-10-16T06:57:43;12.05;;;8.50;;
49320;SDS011;35817;44.498;0.166;2022-10-16T07:00:09;11.27;;;8.27;;
49320;SDS011;35817;44.498;0.166;2022-10-16T07:02:35;10.77;;;8.23;;
49320;SDS011;35817;44.498;0.166;2022-10-16T07:05:00;9.35;;;7.95;;
49320;SDS011;35817;44.498;0.166;2022-10-16T07:07:26;8.77;;;6.90;;
49320;SDS011;35817;44.498;0.166;2022-10-16T07:09:52;9.70;;;8.02;;
49320;SDS011;35817;44.498;0.166;2022-10-16T07:12:18;12.05;;;7.50;;
49320;SDS011;35817;44.498;0.166;2022-10-16T07:14:43;13.48;;;7.05;;
49320;SDS011;35817;44.498;0.166;2022-10-16T07:17:09;9.02;;;7.53;;
49320;SDS011;35817;44.498;0.166;2022-10-16T07:19:35;8.10;;;6.75;;
49320;SDS011;35817;44.498;0.166;2022-10-16T07:22:00;10.70;;;6.72;;
49320;SDS011;35817;44.498;0.166;2022-10-16T07:24:26;8.10;;;7.22;;
49320;SDS011;35817;44.498;0.166;2022-10-16T07:26:52;10.90;;;8.07;;
49320;SDS011;35817;44.498;0.166;2022-10-16T07:29:19;15.70;;;8.32;;
49320;SDS011;35817;44.498;0.166;2022-10-16T07:31:46;13.25;;;7.18;;
49320;SDS011;35817;44.498;0.166;2022-10-16T07:34:14;11.85;;;8.00;;
49320;SDS011;35817;44.498;0.166;2022-10-16T07:36:40;13.45;;;8.18;;
49320;SDS011;35817;44.498;0.166;2022-10-16T07:39:06;10.65;;;8.00;;
49320;SDS011;35817;44.498;0.166;2022-10-16T07:41:33;11.18;;;7.80;;
49320;SDS011;35817;44.498;0.166;2022-10-16T07:44:01;10.10;;;8.32;;
49320;SDS011;35817;44.498;0.166;2022-10-16T07:46:28;9.60;;;6.60;;
49320;SDS011;35817;44.498;0.166;2022-10-16T07:48:54;11.55;;;7.22;;
49320;SDS011;35817;44.498;0.166;2022-10-16T07:51:21;10.82;;;7.47;;
49320;SDS011;35817;44.498;0.166;2022-10-16T07:53:48;12.13;;;6.80;;
49320;SDS011;35817;44.498;0.166;2022-10-16T07:56:15;13.57;;;8.38;;
49320;SDS011;35817;44.498;0.166;2022-10-16T07:58:41;9.52;;;6.95;;
49320;SDS011;35817;44.498;0.166;2022-10-16T08:01:08;9.05;;;7.13;;
49320;SDS011;35817;44.498;0.166;2022-10-16T08:03:36;11.63;;;7.25;;
49320;SDS011;35817;44.498;0.166;2022-10-16T08:06:02;7.15;;;5.88;;
49320;SDS011;35817;44.498;0.166;2022-10-16T08:08:29;10.85;;;7.80;;
49320;SDS011;35817;44.498;0.166;2022-10-16T08:10:54;15.43;;;7.93;;
49320;SDS011;35817;44.498;0.166;2022-10-16T08:13:20;10.57;;;6.75;;
49320;SDS011;35817;44.498;0.166;2022-10-16T08:15:46;8.50;;;7.05;;
49320;SDS011;35817;44.498;0.166;2022-10-16T08:18:13;12.07;;;7.28;;
49320;SDS011;35817;44.498;0.166;2022-10-16T08:20:39;12.05;;;7.13;;
49320;SDS011;35817;44.498;0.166;2022-10-16T08:23:06;10.75;;;6.57;;
49320;SDS011;35817;44.498;0.166;2022-10-16T08:25:34;8.00;;;5.63;;
49320;SDS011;35817;44.498;0.166;2022-10-16T08:28:02;7.85;;;6.25;;
49320;SDS011;35817;44.498;0.166;2022-10-16T08:30:29;8.63;;;5.60;;
49320;SDS011;35817;44.498;0.166;2022-10-16T08:32:55;9.02;;;6.60;;
49320;SDS011;35817;44.498;0.166;2022-10-16T08:35:21;9.88;;;6.45;;
49320;SDS011;35817;44.498;0.166;2022-10-16T08:37:46;7.47;;;5.82;;
49320;SDS011;35817;44.498;0.166;2022-10-16T08:40:19;9.15;;;7.07;;
49320;SDS011;35817;44.498;0.166;2022-10-16T08:48:24;9.02;;;5.63;;
49320;SDS011;35817;44.498;0.166;2022-10-16T08:50:57;6.50;;;4.75;;
49320;SDS011;35817;44.498;0.166;2022-10-16T08:53:29;5.15;;;4.13;;
49320;SDS011;35817;44.498;0.166;2022-10-16T08:56:01;7.65;;;4.43;;
49320;SDS011;35817;44.498;0.166;2022-10-16T08:58:28;5.55;;;4.03;;
49320;SDS011;35817;44.498;0.166;2022-10-16T09:00:57;6.72;;;4.35;;
49320;SDS011;35817;44.498;0.166;2022-10-16T09:23:14;6.95;;;3.53;;
49320;SDS011;35817;44.498;0.166;2022-10-16T09:25:43;8.70;;;3.75;;
49320;SDS011;35817;44.498;0.166;2022-10-16T09:28:12;5.80;;;3.70;;
49320;SDS011;35817;44.498;0.166;2022-10-16T09:30:38;5.95;;;3.75;;
49320;SDS011;35817;44.498;0.166;2022-10-16T09:33:04;4.53;;;3.17;;
49320;SDS011;35817;44.498;0.166;2022-10-16T09:35:48;6.15;;;4.07;;
49320;SDS011;35817;44.498;0.166;2022-10-16T09:38:20;7.43;;;4.55;;
49320;SDS011;35817;44.498;0.166;2022-10-16T09:40:59;4.53;;;3.50;;
49320;SDS011;35817;44.498;0.166;2022-10-16T09:46:06;11.45;;;3.35;;
49320;SDS011;35817;44.498;0.166;2022-10-16T09:48:39;7.30;;;5.47;;
49320;SDS011;35817;44.498;0.166;2022-10-16T09:51:21;5.95;;;3.85;;
49320;SDS011;35817;44.498;0.166;2022-10-16T09:53:59;9.18;;;3.97;;
49320;SDS011;35817;44.498;0.166;2022-10-16T09:56:28;5.13;;;3.95;;
49320;SDS011;35817;44.498;0.166;2022-10-16T09:59:17;6.95;;;4.72;;
49320;SDS011;35817;44.498;0.166;2022-10-16T10:01:45;4.82;;;2.85;;
49320;SDS011;35817;44.498;0.166;2022-10-16T10:04:13;5.05;;;3.47;;
49320;SDS011;35817;44.498;0.166;2022-10-16T10:06:49;7.10;;;4.53;;
49320;SDS011;35817;44.498;0.166;2022-10-16T10:09:26;5.63;;;3.22;;
49320;SDS011;35817;44.498;0.166;2022-10-16T10:11:56;6.32;;;4.30;;
49320;SDS011;35817;44.498;0.166;2022-10-16T10:14:27;7.05;;;2.97;;
49320;SDS011;35817;44.498;0.166;2022-10-16T10:19:36;5.63;;;3.53;;
49320;SDS011;35817;44.498;0.166;2022-10-16T10:24:43;6.13;;;3.63;;
49320;SDS011;35817;44.498;0.166;2022-10-16T10:27:12;5.85;;;3.70;;
49320;SDS011;35817;44.498;0.166;2022-10-16T10:32:35;7.05;;;4.28;;
49320;SDS011;35817;44.498;0.166;2022-10-16T10:43:26;5.28;;;3.42;;
49320;SDS011;35817;44.498;0.166;2022-10-16T10:46:13;6.82;;;3.72;;
49320;SDS011;35817;44.498;0.166;2022-10-16T10:54:26;5.32;;;3.25;;
49320;SDS011;35817;44.498;0.166;2022-10-16T10:57:10;4.85;;;3.22;;
49320;SDS011;35817;44.498;0.166;2022-10-16T11:00:02;4.80;;;3.63;;
49320;SDS011;35817;44.498;0.166;2022-10-16T11:02:41;5.32;;;3.40;;
49320;SDS011;35817;44.498;0.166;2022-10-16T11:07:57;5.88;;;3.75;;
49320;SDS011;35817;44.498;0.166;2022-10-16T11:10:27;5.20;;;3.38;;
49320;SDS011;35817;44.498;0.166;2022-10-16T11:13:17;5.28;;;3.22;;
49320;SDS011;35817;44.498;0.166;2022-10-16T11:15:52;4.68;;;3.67;;
49320;SDS011;35817;44.498;0.166;2022-10-16T11:18:28;5.00;;;3.45;;
49320;SDS011;35817;44.498;0.166;2022-10-16T11:21:06;8.32;;;3.17;;
49320;SDS011;35817;44.498;0.166;2022-10-16T11:23:40;6.80;;;3.67;;
49320;SDS011;35817;44.498;0.166;2022-10-16T11:26:14;4.55;;;3.25;;
49320;SDS011;35817;44.498;0.166;2022-10-16T11:28:51;7.13;;;3.70;;
49320;SDS011;35817;44.498;0.166;2022-10-16T11:41:47;5.30;;;3.78;;
49320;SDS011;35817;44.498;0.166;2022-10-16T11:47:08;7.72;;;3.55;;
49320;SDS011;35817;44.498;0.166;2022-10-16T11:49:44;7.30;;;3.55;;
49320;SDS011;35817;44.498;0.166;2022-10-16T11:54:59;9.15;;;4.05;;
49320;SDS011;35817;44.498;0.166;2022-10-16T11:57:33;3.95;;;3.25;;
49320;SDS011;35817;44.498;0.166;2022-10-16T12:00:17;6.82;;;3.40;;
49320;SDS011;35817;44.498;0.166;2022-10-16T12:17:57;7.82;;;3.58;;
49320;SDS011;35817;44.498;0.166;2022-10-16T12:20:24;4.03;;;2.58;;
49320;SDS011;35817;44.498;0.166;2022-10-16T12:22:57;4.75;;;2.50;;
49320;SDS011;35817;44.498;0.166;2022-10-16T12:28:21;7.45;;;2.65;;
49320;SDS011;35817;44.498;0.166;2022-10-16T12:31:01;3.90;;;2.17;;
49320;SDS011;35817;44.498;0.166;2022-10-16T12:33:34;5.10;;;2.85;;
49320;SDS011;35817;44.498;0.166;2022-10-16T12:36:02;6.80;;;2.55;;
49320;SDS011;35817;44.498;0.166;2022-10-16T12:38:35;5.47;;;3.03;;
49320;SDS011;35817;44.498;0.166;2022-10-16T12:41:10;3.30;;;2.67;;
49320;SDS011;35817;44.498;0.166;2022-10-16T12:43:41;5.47;;;2.47;;
49320;SDS011;35817;44.498;0.166;2022-10-16T12:48:34;3.13;;;2.08;;
49320;SDS011;35817;44.498;0.166;2022-10-16T12:56:57;3.15;;;2.80;;
49320;SDS011;35817;44.498;0.166;2022-10-16T13:05:02;4.50;;;2.70;;
49320;SDS011;35817;44.498;0.166;2022-10-16T13:07:56;3.38;;;1.88;;
49320;SDS011;35817;44.498;0.166;2022-10-16T13:33:32;3.20;;;2.10;;
49320;SDS011;35817;44.498;0.166;2022-10-16T13:36:01;3.80;;;2.10;;
49320;SDS011;35817;44.498;0.166;2022-10-16T13:38:29;5.68;;;2.15;;
49320;SDS011;35817;44.498;0.166;2022-10-16T13:41:04;6.30;;;2.15;;
49320;SDS011;35817;44.498;0.166;2022-10-16T13:43:41;4.35;;;2.55;;
49320;SDS011;35817;44.498;0.166;2022-10-16T13:48:41;3.47;;;2.22;;
49320;SDS011;35817;44.498;0.166;2022-10-16T13:51:12;2.78;;;2.00;;
49320;SDS011;35817;44.498;0.166;2022-10-16T13:53:42;5.40;;;2.70;;
49320;SDS011;35817;44.498;0.166;2022-10-16T13:56:10;4.80;;;2.67;;
49320;SDS011;35817;44.498;0.166;2022-10-16T13:58:39;4.22;;;2.28;;
49320;SDS011;35817;44.498;0.166;2022-10-16T14:01:06;6.72;;;2.25;;
49320;SDS011;35817;44.498;0.166;2022-10-16T14:06:17;4.40;;;2.75;;
49320;SDS011;35817;44.498;0.166;2022-10-16T14:16:18;3.35;;;2.20;;
49320;SDS011;35817;44.498;0.166;2022-10-16T14:18:51;6.15;;;2.20;;
49320;SDS011;35817;44.498;0.166;2022-10-16T14:21:21;8.60;;;2.15;;
49320;SDS011;35817;44.498;0.166;2022-10-16T14:23:47;5.85;;;2.55;;
49320;SDS011;35817;44.498;0.166;2022-10-16T14:26:14;5.10;;;1.90;;
49320;SDS011;35817;44.498;0.166;2022-10-16T14:28:43;8.38;;;2.13;;
49320;SDS011;35817;44.498;0.166;2022-10-16T14:33:49;4.25;;;2.45;;
49320;SDS011;35817;44.498;0.166;2022-10-16T14:36:15;5.03;;;1.60;;
49320;SDS011;35817;44.498;0.166;2022-10-16T14:39:00;6.28;;;2.17;;
49320;SDS011;35817;44.498;0.166;2022-10-16T14:41:40;5.47;;;2.10;;
49320;SDS011;35817;44.498;0.166;2022-10-16T14:44:09;4.30;;;2.13;;
49320;SDS011;35817;44.498;0.166;2022-10-16T14:49:05;5.13;;;2.50;;
49320;SDS011;35817;44.498;0.166;2022-10-16T14:51:43;5.03;;;2.72;;
49320;SDS011;35817;44.498;0.166;2022-10-16T14:56:46;6.70;;;2.55;;
49320;SDS011;35817;44.498;0.166;2022-10-16T15:02:46;8.02;;;2.95;;
49320;SDS011;35817;44.498;0.166;2022-10-16T15:04:54;5.25;;;2.65;;
49320;SDS011;35817;44.498;0.166;2022-10-16T15:07:20;4.70;;;2.40;;
49320;SDS011;35817;44.498;0.166;2022-10-16T15:09:46;6.38;;;5.43;;
49320;SDS011;35817;44.498;0.166;2022-10-16T15:12:12;7.50;;;4.05;;
49320;SDS011;35817;44.498;0.166;2022-10-16T15:14:38;7.25;;;3.58;;
49320;SDS011;35817;44.498;0.166;2022-10-16T15:17:03;9.82;;;2.95;;
49320;SDS011;35817;44.498;0.166;2022-10-16T15:19:29;7.22;;;3.72;;
49320;SDS011;35817;44.498;0.166;2022-10-16T15:21:55;8.70;;;3.90;;
49320;SDS011;35817;44.498;0.166;2022-10-16T15:24:21;5.72;;;2.97;;
49320;SDS011;35817;44.498;0.166;2022-10-16T15:26:47;5.10;;;2.22;;
49320;SDS011;35817;44.498;0.166;2022-10-16T15:29:14;8.13;;;2.80;;
49320;SDS011;35817;44.498;0.166;2022-10-16T15:31:40;7.70;;;2.63;;
49320;SDS011;35817;44.498;0.166;2022-10-16T15:34:10;5.35;;;2.28;;
49320;SDS011;35817;44.498;0.166;2022-10-16T15:36:37;4.80;;;2.42;;
49320;SDS011;35817;44.498;0.166;2022-10-16T15:39:03;5.97;;;2.53;;
49320;SDS011;35817;44.498;0.166;2022-10-16T15:41:30;8.90;;;3.10;;
49320;SDS011;35817;44.498;0.166;2022-10-16T15:43:56;6.25;;;2.30;;
49320;SDS011;35817;44.498;0.166;2022-10-16T15:46:23;4.40;;;2.10;;
49320;SDS011;35817;44.498;0.166;2022-10-16T15:48:49;5.28;;;2.63;;
49320;SDS011;35817;44.498;0.166;2022-10-16T15:51:16;5.38;;;2.35;;
49320;SDS011;35817;44.498;0.166;2022-10-16T15:53:43;5.70;;;1.98;;
49320;SDS011;35817;44.498;0.166;2022-10-16T15:56:11;5.40;;;2.20;;
49320;SDS011;35817;44.498;0.166;2022-10-16T15:58:37;7.60;;;2.75;;
49320;SDS011;35817;44.498;0.166;2022-10-16T16:01:03;7.88;;;3.25;;
49320;SDS011;35817;44.498;0.166;2022-10-16T16:03:29;7.50;;;2.25;;
49320;SDS011;35817;44.498;0.166;2022-10-16T16:05:57;7.20;;;2.83;;
49320;SDS011;35817;44.498;0.166;2022-10-16T16:08:23;6.20;;;2.85;;
49320;SDS011;35817;44.498;0.166;2022-10-16T16:10:58;6.53;;;2.58;;
49320;SDS011;35817;44.498;0.166;2022-10-16T16:13:30;7.88;;;3.10;;
49320;SDS011;35817;44.498;0.166;2022-10-16T16:15:56;11.10;;;2.83;;
49320;SDS011;35817;44.498;0.166;2022-10-16T16:18:22;5.93;;;2.85;;
49320;SDS011;35817;44.498;0.166;2022-10-16T16:20:49;6.20;;;3.30;;
49320;SDS011;35817;44.498;0.166;2022-10-16T16:23:15;5.97;;;2.17;;
49320;SDS011;35817;44.498;0.166;2022-10-16T16:25:41;4.05;;;2.72;;
49320;SDS011;35817;44.498;0.166;2022-10-16T16:28:07;4.65;;;2.78;;
49320;SDS011;35817;44.498;0.166;2022-10-16T16:30:35;4.85;;;2.95;;
49320;SDS011;35817;44.498;0.166;2022-10-16T16:33:01;10.23;;;3.28;;
49320;SDS011;35817;44.498;0.166;2022-10-16T16:35:27;5.88;;;2.45;;
49320;SDS011;35817;44.498;0.166;2022-10-16T16:37:52;6.40;;;2.80;;
49320;SDS011;35817;44.498;0.166;2022-10-16T16:40:18;7.55;;;2.42;;
49320;SDS011;35817;44.498;0.166;2022-10-16T16:42:44;6.38;;;3.35;;
49320;SDS011;35817;44.498;0.166;2022-10-16T16:45:12;7.18;;;2.45;;
49320;SDS011;35817;44.498;0.166;2022-10-16T16:47:38;6.10;;;2.80;;
49320;SDS011;35817;44.498;0.166;2022-10-16T16:50:03;6.95;;;2.72;;
49320;SDS011;35817;44.498;0.166;2022-10-16T16:52:30;3.42;;;2.97;;
49320;SDS011;35817;44.498;0.166;2022-10-16T16:54:55;7.78;;;2.72;;
49320;SDS011;35817;44.498;0.166;2022-10-16T16:57:21;7.60;;;2.60;;
49320;SDS011;35817;44.498;0.166;2022-10-16T16:59:47;4.45;;;2.60;;
49320;SDS011;35817;44.498;0.166;2022-10-16T17:02:15;3.92;;;3.05;;
49320;SDS011;35817;44.498;0.166;2022-10-16T17:04:40;5.20;;;2.63;;
49320;SDS011;35817;44.498;0.166;2022-10-16T17:07:06;7.72;;;2.80;;
49320;SDS011;35817;44.498;0.166;2022-10-16T17:09:32;4.53;;;2.70;;
49320;SDS011;35817;44.498;0.166;2022-10-16T17:11:58;6.50;;;3.00;;
49320;SDS011;35817;44.498;0.166;2022-10-16T17:14:23;5.00;;;2.17;;
49320;SDS011;35817;44.498;0.166;2022-10-16T17:16:49;6.90;;;2.38;;
49320;SDS011;35817;44.498;0.166;2022-10-16T17:19:18;4.57;;;1.88;;
49320;SDS011;35817;44.498;0.166;2022-10-16T17:21:45;5.45;;;2.38;;
49320;SDS011;35817;44.498;0.166;2022-10-16T17:24:13;4.00;;;1.73;;
49320;SDS011;35817;44.498;0.166;2022-10-16T17:26:39;8.40;;;1.77;;
49320;SDS011;35817;44.498;0.166;2022-10-16T17:29:09;6.90;;;2.08;;
49320;SDS011;35817;44.498;0.166;2022-10-16T17:31:37;4.13;;;1.67;;
49320;SDS011;35817;44.498;0.166;2022-10-16T17:34:04;5.53;;;1.98;;
49320;SDS011;35817;44.498;0.166;2022-10-16T17:36:33;4.88;;;1.65;;